createdAt,value
2022-11-16T00:03:05.103Z,3.88
2022-11-16T00:07:07.716Z,4.28
2022-11-16T00:11:12.521Z,3.72
2022-11-16T00:15:14.571Z,4.32
2022-11-16T00:19:17.097Z,3.80
2022-11-16T00:23:19.184Z,4.50
2022-11-16T00:27:21.254Z,4.28
2022-11-16T00:31:23.704Z,4.10
2022-11-16T00:35:25.750Z,4.55
2022-11-16T00:39:28.299Z,4.20
2022-11-16T00:43:30.678Z,4.28
2022-11-16T00:47:32.776Z,4.65
2022-11-16T00:51:35.843Z,4.47
2022-11-16T00:55:38.169Z,4.70
2022-11-16T00:59:40.463Z,6.00
2022-11-16T01:03:42.599Z,6.03
2022-11-16T01:07:44.677Z,6.10
2022-11-16T01:12:05.465Z,5.22
2022-11-16T01:16:07.534Z,5.05
2022-11-16T01:20:14.551Z,5.60
2022-11-16T01:24:16.548Z,5.78
2022-11-16T01:28:18.544Z,5.20
2022-11-16T01:32:25.675Z,5.72
2022-11-16T01:36:28.317Z,4.70
2022-11-16T01:40:32.451Z,5.25
2022-11-16T01:44:34.505Z,4.90
2022-11-16T01:48:48.700Z,4.60
2022-11-16T01:52:59.477Z,4.70
2022-11-16T01:57:09.442Z,4.43
2022-11-16T02:01:14.790Z,5.07
2022-11-16T02:05:36.197Z,5.10
2022-11-16T02:10:07.378Z,5.18
2022-11-16T02:14:29.939Z,5.53
2022-11-16T02:18:40.790Z,5.25
2022-11-16T02:23:21.113Z,5.80
2022-11-16T02:27:37.131Z,5.28
2022-11-16T02:31:49.501Z,6.10
2022-11-16T02:35:56.704Z,6.03
2022-11-16T02:40:03.392Z,5.40
2022-11-16T02:44:15.843Z,6.00
2022-11-16T02:48:23.065Z,5.90
2022-11-16T02:56:30.163Z,5.45
2022-11-16T03:00:37.493Z,4.90
2022-11-16T03:04:45.930Z,4.78
2022-11-16T03:08:59.688Z,4.50
2022-11-16T03:13:09.965Z,4.68
2022-11-16T03:17:29.227Z,4.28
2022-11-16T03:21:43.494Z,4.10
2022-11-16T03:25:51.779Z,4.30
2022-11-16T03:30:05.673Z,4.53
2022-11-16T03:34:16.227Z,4.15
2022-11-16T03:38:22.272Z,4.20
2022-11-16T03:42:26.544Z,3.63
2022-11-16T03:46:28.892Z,3.55
2022-11-16T03:50:31.004Z,3.10
2022-11-16T03:54:35.157Z,2.70
2022-11-16T03:58:37.273Z,2.40
2022-11-16T04:02:39.354Z,2.22
2022-11-16T04:07:01.044Z,2.20
2022-11-16T04:11:23.053Z,1.70
2022-11-16T04:15:44.452Z,1.65
2022-11-16T04:20:05.290Z,1.60
2022-11-16T04:24:14.688Z,1.60
2022-11-16T04:28:22.051Z,2.03
2022-11-16T04:32:45.910Z,2.50
2022-11-16T04:37:07.659Z,3.33
2022-11-16T04:41:30.393Z,3.58
2022-11-16T04:45:52.328Z,4.57
2022-11-16T04:49:58.896Z,4.35
2022-11-16T04:54:01.024Z,4.85
2022-11-16T04:58:04.151Z,4.93
2022-11-16T05:02:09.752Z,5.40
2022-11-16T05:06:19.631Z,5.30
2022-11-16T05:10:21.881Z,5.90
2022-11-16T05:14:25.443Z,5.60
2022-11-16T05:18:28.400Z,5.50
2022-11-16T05:22:31.478Z,5.82
2022-11-16T05:26:34.548Z,5.50
2022-11-16T05:30:37.955Z,5.18
2022-11-16T05:34:40.349Z,5.25
2022-11-16T05:38:42.606Z,4.93
2022-11-16T05:42:45.151Z,5.05
2022-11-16T05:46:47.653Z,5.10
2022-11-16T05:50:58.427Z,5.32
2022-11-16T05:55:01.111Z,4.75
2022-11-16T05:59:06.205Z,4.38
2022-11-16T06:03:09.132Z,4.00
2022-11-16T06:07:12.057Z,3.75
2022-11-16T06:11:14.343Z,3.30
2022-11-16T06:15:16.545Z,2.47
2022-11-16T06:19:18.663Z,2.20
2022-11-16T06:23:21.333Z,2.20
2022-11-16T06:27:23.985Z,1.80
2022-11-16T06:31:26.089Z,1.55
2022-11-16T06:35:29.795Z,1.08
2022-11-16T06:39:32.738Z,1.38
2022-11-16T06:43:35.218Z,0.90
2022-11-16T06:47:38.234Z,0.80
2022-11-16T06:51:40.496Z,0.90
2022-11-16T06:55:43.919Z,0.80
2022-11-16T06:59:46.784Z,0.90
2022-11-16T07:03:49.082Z,1.00
2022-11-16T07:07:55.668Z,1.23
2022-11-16T07:11:59.107Z,1.67
2022-11-16T07:16:11.512Z,1.48
2022-11-16T07:20:19.083Z,2.03
2022-11-16T07:24:21.146Z,2.60
2022-11-16T07:28:23.275Z,3.42
2022-11-16T07:32:25.398Z,3.53
2022-11-16T07:36:47.630Z,3.83
2022-11-16T07:40:49.741Z,4.15
2022-11-16T07:44:54.730Z,4.50
2022-11-16T07:48:57.342Z,3.20
2022-11-16T07:53:19.656Z,2.45
2022-11-16T07:57:21.682Z,3.40
2022-11-16T08:01:24.501Z,4.70
2022-11-16T08:05:29.780Z,4.88
2022-11-16T08:09:31.917Z,5.78
2022-11-16T08:13:36.756Z,7.53
2022-11-16T08:17:39.103Z,8.50
2022-11-16T08:21:42.992Z,1.88
2022-11-16T08:25:45.115Z,1.38
2022-11-16T08:29:47.744Z,1.70
2022-11-16T08:33:50.113Z,1.23
2022-11-16T08:37:52.276Z,1.95
2022-11-16T08:41:54.483Z,1.20
2022-11-16T08:45:57.379Z,2.03
2022-11-16T08:49:59.504Z,1.83
2022-11-16T08:54:06.183Z,1.95
2022-11-16T08:58:11.462Z,1.40
2022-11-16T09:02:15.020Z,1.20
2022-11-16T09:06:17.361Z,1.40
2022-11-16T09:10:22.905Z,1.10
2022-11-16T09:14:25.058Z,1.10
2022-11-16T09:18:28.243Z,1.00
2022-11-16T09:22:30.237Z,1.00
2022-11-16T09:26:32.316Z,0.90
2022-11-16T09:30:34.355Z,1.05
2022-11-16T09:34:36.612Z,0.65
2022-11-16T09:39:17.746Z,0.98
2022-11-16T09:43:19.408Z,0.90
2022-11-16T09:47:26.168Z,0.95
2022-11-16T09:51:32.497Z,1.67
2022-11-16T09:55:46.161Z,1.05
2022-11-16T09:59:52.132Z,0.60
2022-11-16T10:04:03.232Z,1.10
2022-11-16T10:08:43.366Z,1.40
2022-11-16T10:12:55.923Z,0.60
2022-11-16T10:17:07.133Z,0.77
2022-11-16T10:21:20.765Z,1.30
2022-11-16T10:25:27.141Z,1.10
2022-11-16T10:29:54.620Z,0.67
2022-11-16T10:33:58.920Z,0.98
2022-11-16T10:38:03.974Z,1.48
2022-11-16T10:42:11.505Z,0.70
2022-11-16T10:46:24.304Z,0.90
2022-11-16T10:50:47.618Z,1.00
2022-11-16T10:54:50.001Z,1.15
2022-11-16T10:59:10.038Z,1.02
2022-11-16T11:03:12.585Z,1.10
2022-11-16T11:07:31.310Z,1.10
2022-11-16T11:11:52.114Z,1.42
2022-11-16T11:16:15.114Z,3.50
2022-11-16T11:20:17.209Z,0.90
2022-11-16T11:28:48.906Z,0.80
2022-11-16T11:32:52.853Z,1.20
2022-11-16T11:37:03.650Z,1.00
2022-11-16T11:41:05.677Z,1.00
2022-11-16T11:45:13.054Z,1.23
2022-11-16T11:49:30.451Z,2.60
2022-11-16T11:53:58.178Z,1.60
2022-11-16T11:58:02.702Z,0.90
2022-11-16T12:02:30.478Z,1.00
2022-11-16T12:06:44.584Z,1.20
2022-11-16T12:10:51.053Z,1.50
2022-11-16T12:15:29.476Z,1.20
2022-11-16T12:19:43.544Z,0.93
2022-11-16T12:24:00.473Z,1.33
2022-11-16T12:28:19.917Z,1.08
2022-11-16T12:32:45.124Z,1.20
2022-11-16T12:37:08.289Z,1.35
2022-11-16T12:41:38.155Z,1.67
2022-11-16T12:46:14.381Z,1.08
2022-11-16T12:50:54.242Z,1.23
2022-11-16T12:55:29.380Z,1.83
2022-11-16T13:00:07.850Z,1.60
2022-11-16T13:04:21.972Z,1.30
2022-11-16T13:08:45.387Z,1.10
2022-11-16T13:12:55.828Z,1.20
2022-11-16T13:17:07.585Z,1.20
2022-11-16T13:21:41.048Z,1.30
2022-11-16T13:25:51.175Z,1.52
2022-11-16T13:30:05.755Z,1.48
2022-11-16T13:34:17.907Z,2.00
2022-11-16T13:38:50.156Z,1.90
2022-11-16T13:43:17.667Z,1.30
2022-11-16T13:47:26.642Z,1.55
2022-11-16T13:51:28.801Z,1.60
2022-11-16T13:55:34.162Z,1.60
2022-11-16T13:59:36.992Z,1.20
2022-11-16T14:03:41.244Z,1.50
2022-11-16T14:07:50.587Z,1.95
2022-11-16T14:11:52.588Z,1.58
2022-11-16T14:16:19.546Z,1.63
2022-11-16T14:20:34.676Z,1.80
2022-11-16T14:24:47.018Z,2.30
2022-11-16T14:29:12.283Z,2.38
2022-11-16T14:33:28.021Z,1.70
2022-11-16T14:37:34.817Z,1.90
2022-11-16T14:41:36.854Z,1.60
2022-11-16T14:45:39.170Z,2.65
2022-11-16T14:49:44.738Z,2.22
2022-11-16T14:53:52.373Z,1.85
2022-11-16T14:58:26.868Z,2.70
2022-11-16T15:02:28.992Z,3.35
2022-11-16T15:06:39.006Z,5.35
2022-11-16T15:10:49.405Z,3.53
2022-11-16T15:14:57.875Z,2.53
2022-11-16T15:19:02.014Z,2.63
2022-11-16T15:23:05.680Z,1.90
2022-11-16T15:27:36.595Z,1.75
2022-11-16T15:31:42.202Z,2.25
2022-11-16T15:35:44.461Z,1.88
2022-11-16T15:39:46.549Z,1.60
2022-11-16T15:44:12.559Z,2.00
2022-11-16T15:48:23.423Z,3.00
2022-11-16T15:52:43.227Z,3.20
2022-11-16T15:56:45.281Z,2.65
2022-11-16T16:00:48.370Z,2.25
2022-11-16T16:04:50.496Z,3.00
2022-11-16T16:09:06.763Z,2.47
2022-11-16T16:13:25.589Z,2.30
2022-11-16T16:17:29.854Z,5.55
2022-11-16T16:21:44.319Z,3.10
2022-11-16T16:25:50.540Z,2.70
2022-11-16T16:29:55.040Z,2.33
2022-11-16T16:33:59.580Z,3.50
2022-11-16T16:38:01.886Z,2.67
2022-11-16T16:42:05.011Z,3.20
2022-11-16T16:46:07.218Z,5.70
2022-11-16T16:50:09.580Z,4.70
2022-11-16T16:54:14.535Z,4.80
2022-11-16T16:58:16.612Z,3.10
2022-11-16T17:02:18.812Z,2.40
2022-11-16T17:06:20.891Z,3.28
2022-11-16T17:10:23.569Z,8.52
2022-11-16T17:14:25.830Z,3.85
2022-11-16T17:18:28.027Z,2.08
2022-11-16T17:22:30.495Z,2.38
2022-11-16T17:26:32.505Z,2.30
2022-11-16T17:30:34.557Z,2.63
2022-11-16T17:34:38.063Z,2.90
2022-11-16T17:38:40.344Z,3.40
2022-11-16T17:42:43.135Z,2.70
2022-11-16T17:46:45.439Z,2.67
2022-11-16T17:50:48.085Z,2.75
2022-11-16T17:54:50.154Z,2.83
2022-11-16T17:58:52.524Z,2.83
2022-11-16T18:02:54.601Z,5.38
2022-11-16T18:06:56.865Z,4.05
2022-11-16T18:11:19.247Z,4.03
2022-11-16T18:15:28.336Z,3.83
2022-11-16T18:19:30.951Z,3.10
2022-11-16T18:23:34.306Z,2.75
2022-11-16T18:27:36.467Z,2.92
2022-11-16T18:31:38.619Z,5.07
2022-11-16T18:35:40.600Z,5.30
2022-11-16T18:39:42.614Z,12.18
2022-11-16T18:43:51.696Z,5.10
2022-11-16T18:47:53.760Z,3.60
2022-11-16T18:51:56.043Z,2.97
2022-11-16T18:55:58.483Z,2.88
2022-11-16T19:00:00.564Z,3.03
2022-11-16T19:04:03.175Z,2.80
2022-11-16T19:08:05.501Z,3.88
2022-11-16T19:12:07.521Z,3.53
2022-11-16T19:16:11.314Z,2.90
2022-11-16T19:20:13.700Z,2.78
2022-11-16T19:24:15.666Z,3.00
2022-11-16T19:28:17.625Z,2.65
2022-11-16T19:32:19.594Z,2.53
2022-11-16T19:36:21.739Z,2.60
2022-11-16T19:40:25.114Z,2.65
2022-11-16T19:44:27.459Z,3.65
2022-11-16T19:48:31.436Z,3.08
2022-11-16T19:52:33.493Z,4.00
2022-11-16T19:56:35.512Z,3.42
2022-11-16T20:00:37.610Z,2.92
2022-11-16T20:04:39.700Z,3.28
2022-11-16T20:08:46.101Z,3.30
2022-11-16T20:12:49.625Z,2.17
2022-11-16T20:16:51.652Z,2.20
2022-11-16T20:20:53.669Z,2.58
2022-11-16T20:24:55.698Z,2.40
2022-11-16T20:28:57.956Z,2.50
2022-11-16T20:32:59.976Z,2.90
2022-11-16T20:37:02.013Z,2.65
2022-11-16T20:41:12.306Z,3.53
2022-11-16T20:45:14.398Z,6.32
2022-11-16T20:49:16.464Z,5.38
2022-11-16T20:53:18.505Z,4.35
2022-11-16T20:57:20.517Z,4.18
2022-11-16T21:01:33.531Z,4.15
2022-11-16T21:05:44.105Z,4.15
2022-11-16T21:10:04.837Z,4.50
2022-11-16T21:14:16.807Z,4.22
2022-11-16T21:18:18.823Z,3.55
2022-11-16T21:22:20.917Z,4.28
2022-11-16T21:26:26.085Z,3.20
2022-11-16T21:30:28.140Z,3.15
2022-11-16T21:34:34.639Z,3.60
2022-11-16T21:38:39.518Z,2.80
2022-11-16T21:42:41.629Z,2.65
2022-11-16T21:46:43.625Z,2.72
2022-11-16T21:50:45.614Z,2.70
2022-11-16T21:54:47.607Z,2.75
2022-11-16T21:58:52.657Z,3.38
2022-11-16T22:02:54.707Z,3.05
2022-11-16T22:07:15.527Z,4.35
2022-11-16T22:11:21.738Z,3.83
2022-11-16T22:15:23.748Z,3.10
2022-11-16T22:19:25.761Z,2.72
2022-11-16T22:23:28.114Z,2.40
2022-11-16T22:27:30.133Z,2.38
2022-11-16T22:31:32.976Z,1.92
2022-11-16T22:35:37.317Z,2.47
2022-11-16T22:39:39.319Z,2.38
2022-11-16T22:43:41.446Z,2.30
2022-11-16T22:47:43.464Z,2.28
2022-11-16T22:51:48.320Z,2.55
2022-11-16T22:55:50.346Z,2.28
2022-11-16T22:59:53.232Z,2.60
2022-11-16T23:03:56.166Z,2.70
2022-11-16T23:07:58.200Z,2.63
2022-11-16T23:12:19.010Z,2.22
2022-11-16T23:16:21.013Z,2.83
2022-11-16T23:20:41.735Z,2.30
2022-11-16T23:25:02.620Z,2.72
2022-11-16T23:29:07.630Z,3.10
2022-11-16T23:33:09.821Z,3.38
2022-11-16T23:37:11.790Z,2.97
2022-11-16T23:41:32.471Z,2.58
2022-11-16T23:45:34.509Z,2.42
2022-11-16T23:49:36.531Z,2.75
2022-11-16T23:53:38.562Z,2.70
2022-11-16T23:57:40.562Z,2.20
